AIC300 VOBL-WSSS
Flight info
| Callsign | AIC300 |
|---|---|
| Flight time | N/A |
| Altitude | 39000 |
| Route | TULNA7B TULNA W116 MMV P761 IDASO N571 GUNIP R467 VKL A464 ARAMA ARAMA1A |
| Aircraft | A388/J-SADE2E3FGHIJ3J4J5M1RWXY/LB1D1 |
Departure
| Time | 2026-05-05 12:52 |
|---|---|
| Airport | Kempegowda International Airport Bengaluru (VOBL) |
Arrival
| Time | N/A |
|---|---|
| Airport | Singapore Changi Airport (WSSS) |
| Time | Latitude | Longitude | Altitude | Speed | Heading |
|---|---|---|---|---|---|
| 2026-05-05 11:49 | 13.20187 | 77.71064 | 3016 ft | 0 kts | 180° |
| 2026-05-05 12:33 | 13.20202 | 77.71064 | 3020 ft | 2 kts | 176° |
| 2026-05-05 12:34 | 13.20218 | 77.71061 | 3025 ft | 2 kts | 170° |
| 2026-05-05 12:34 | 13.20234 | 77.71056 | 3026 ft | 2 kts | 159° |
| 2026-05-05 12:34 | 13.20248 | 77.71047 | 3023 ft | 2 kts | 141° |
| 2026-05-05 12:34 | 13.20257 | 77.71034 | 3025 ft | 2 kts | 119° |
| 2026-05-05 12:35 | 13.20262 | 77.71018 | 3023 ft | 2 kts | 99° |
| 2026-05-05 12:35 | 13.20262 | 77.71012 | 3025 ft | 0 kts | 95° |
| 2026-05-05 12:40 | 13.20261 | 77.71020 | 3016 ft | 3 kts | 95° |
| 2026-05-05 12:40 | 13.20259 | 77.71059 | 3016 ft | 8 kts | 88° |
| 2026-05-05 12:40 | 13.20261 | 77.71126 | 3016 ft | 12 kts | 88° |
| 2026-05-05 12:40 | 13.20265 | 77.71226 | 3016 ft | 15 kts | 86° |
| 2026-05-05 12:41 | 13.20320 | 77.71274 | 3016 ft | 12 kts | 7° |
| 2026-05-05 12:41 | 13.20409 | 77.71285 | 3016 ft | 14 kts | 3° |
| 2026-05-05 12:41 | 13.20495 | 77.71266 | 3016 ft | 11 kts | 308° |
| 2026-05-05 12:41 | 13.20545 | 77.71196 | 3016 ft | 12 kts | 317° |
| 2026-05-05 12:42 | 13.20589 | 77.71179 | 3016 ft | 0 kts | 353° |
| 2026-05-05 12:42 | 13.20594 | 77.71178 | 3016 ft | 1 kts | 353° |
| 2026-05-05 12:42 | 13.20596 | 77.71178 | 3016 ft | 0 kts | 354° |
| 2026-05-05 12:43 | 13.20597 | 77.71178 | 3016 ft | 0 kts | 354° |
| 2026-05-05 12:43 | 13.20600 | 77.71177 | 3016 ft | 0 kts | 354° |
| 2026-05-05 12:44 | 13.20601 | 77.71177 | 3016 ft | 0 kts | 354° |
| 2026-05-05 12:44 | 13.20604 | 77.71177 | 3016 ft | 1 kts | 353° |
| 2026-05-05 12:44 | 13.20602 | 77.71177 | 3016 ft | 1 kts | 353° |
| 2026-05-05 12:45 | 13.20587 | 77.71179 | 3016 ft | 3 kts | 354° |
| 2026-05-05 12:45 | 13.20570 | 77.71179 | 3017 ft | 4 kts | 4° |
| 2026-05-05 12:45 | 13.20546 | 77.71169 | 3018 ft | 4 kts | 37° |
| 2026-05-05 12:45 | 13.20534 | 77.71146 | 3022 ft | 4 kts | 80° |
| 2026-05-05 12:46 | 13.20534 | 77.71144 | 3023 ft | 0 kts | 81° |
| 2026-05-05 12:46 | 13.20535 | 77.71151 | 3022 ft | 4 kts | 85° |
| 2026-05-05 12:46 | 13.20533 | 77.71204 | 3016 ft | 11 kts | 95° |
| 2026-05-05 12:46 | 13.20524 | 77.71310 | 3016 ft | 18 kts | 94° |
| 2026-05-05 12:47 | 13.20524 | 77.71459 | 3016 ft | 24 kts | 89° |
| 2026-05-05 12:47 | 13.20526 | 77.71647 | 3017 ft | 29 kts | 89° |
| 2026-05-05 12:47 | 13.20519 | 77.71868 | 3017 ft | 33 kts | 90° |
| 2026-05-05 12:47 | 13.20516 | 77.72111 | 3017 ft | 34 kts | 91° |
| 2026-05-05 12:48 | 13.20515 | 77.72175 | 3017 ft | 6 kts | 91° |
| 2026-05-05 12:48 | 13.20517 | 77.72234 | 3017 ft | 10 kts | 76° |
| 2026-05-05 12:48 | 13.20562 | 77.72283 | 3016 ft | 10 kts | 13° |
| 2026-05-05 12:48 | 13.20636 | 77.72286 | 3016 ft | 12 kts | 354° |
| 2026-05-05 12:49 | 13.20687 | 77.72253 | 3016 ft | 7 kts | 278° |
| 2026-05-05 12:49 | 13.20688 | 77.72222 | 3017 ft | 0 kts | 271° |
| 2026-05-05 12:50 | 13.20688 | 77.72219 | 3017 ft | 2 kts | 271° |
| 2026-05-05 12:51 | 13.20691 | 77.72079 | 3016 ft | 46 kts | 271° |
| 2026-05-05 12:51 | 13.20699 | 77.71475 | 3016 ft | 119 kts | 271° |
| 2026-05-05 12:51 | 13.20713 | 77.70449 | 3031 ft | 161 kts | 272° |
| 2026-05-05 12:51 | 13.20737 | 77.69273 | 3443 ft | 165 kts | 272° |
| 2026-05-05 12:52 | 13.20737 | 77.68094 | 4009 ft | 165 kts | 270° |
| 2026-05-05 12:52 | 13.20718 | 77.66910 | 4546 ft | 166 kts | 269° |
| 2026-05-05 12:52 | 13.20672 | 77.65717 | 5046 ft | 167 kts | 269° |
| 2026-05-05 12:52 | 13.20629 | 77.64508 | 5430 ft | 177 kts | 274° |
| 2026-05-05 12:53 | 13.20707 | 77.63192 | 5684 ft | 192 kts | 281° |
| 2026-05-05 12:53 | 13.21294 | 77.61929 | 5807 ft | 203 kts | 317° |
| 2026-05-05 12:53 | 13.22507 | 77.61184 | 5946 ft | 212 kts | 340° |
| 2026-05-05 12:53 | 13.23936 | 77.60618 | 6015 ft | 232 kts | 335° |
| 2026-05-05 12:54 | 13.26586 | 77.58236 | 6630 ft | 275 kts | 309° |
| 2026-05-05 12:54 | 13.27666 | 77.56596 | 7337 ft | 278 kts | 304° |
| 2026-05-05 12:54 | 13.28334 | 77.55468 | 7776 ft | 281 kts | 303° |
| 2026-05-05 12:55 | 13.29281 | 77.52983 | 8731 ft | 288 kts | 277° |
| 2026-05-05 12:55 | 13.29049 | 77.50920 | 9418 ft | 297 kts | 252° |
| 2026-05-05 12:55 | 13.27962 | 77.49093 | 10127 ft | 305 kts | 227° |
| 2026-05-05 12:55 | 13.26261 | 77.47753 | 10393 ft | 325 kts | 212° |
| 2026-05-05 12:56 | 13.24208 | 77.46598 | 10553 ft | 344 kts | 208° |
| 2026-05-05 12:56 | 13.22024 | 77.45433 | 10831 ft | 358 kts | 208° |
| 2026-05-05 12:56 | 13.20558 | 77.44632 | 10951 ft | 361 kts | 209° |
| 2026-05-05 12:56 | 13.18293 | 77.43480 | 10957 ft | 361 kts | 199° |
| 2026-05-05 12:57 | 13.15824 | 77.43071 | 10954 ft | 361 kts | 178° |
| 2026-05-05 12:57 | 13.13393 | 77.43571 | 10951 ft | 360 kts | 157° |
| 2026-05-05 12:57 | 13.11274 | 77.44927 | 10955 ft | 358 kts | 136° |
| 2026-05-05 12:57 | 13.09751 | 77.46925 | 10980 ft | 355 kts | 119° |
| 2026-05-05 12:58 | 13.08605 | 77.49133 | 10981 ft | 355 kts | 115° |
| 2026-05-05 12:58 | 13.07504 | 77.51399 | 10995 ft | 353 kts | 112° |
| 2026-05-05 12:58 | 13.06703 | 77.53774 | 11000 ft | 352 kts | 102° |
| 2026-05-05 12:58 | 13.06339 | 77.56254 | 11002 ft | 350 kts | 91° |
| 2026-05-05 12:59 | 13.06242 | 77.58750 | 11011 ft | 350 kts | 91° |
| 2026-05-05 12:59 | 13.06111 | 77.61215 | 11010 ft | 348 kts | 92° |
| 2026-05-05 12:59 | 13.05961 | 77.63699 | 11019 ft | 348 kts | 92° |
| 2026-05-05 13:00 | 13.05655 | 77.68634 | 11011 ft | 348 kts | 92° |
| 2026-05-05 13:00 | 13.05503 | 77.71129 | 11020 ft | 348 kts | 92° |
| 2026-05-05 13:01 | 13.05057 | 77.78545 | 11011 ft | 348 kts | 92° |
| 2026-05-05 13:01 | 13.04907 | 77.81033 | 11098 ft | 349 kts | 92° |
| 2026-05-05 13:01 | 13.04756 | 77.83541 | 11398 ft | 353 kts | 92° |
| 2026-05-05 13:01 | 13.04605 | 77.86047 | 12092 ft | 354 kts | 92° |
| 2026-05-05 13:02 | 13.04452 | 77.88576 | 12694 ft | 357 kts | 92° |
| 2026-05-05 13:02 | 13.04299 | 77.91104 | 13284 ft | 361 kts | 92° |
| 2026-05-05 13:02 | 13.04143 | 77.93678 | 13852 ft | 365 kts | 92° |
| 2026-05-05 13:02 | 13.03982 | 77.96318 | 14373 ft | 369 kts | 92° |
| 2026-05-05 13:03 | 13.03822 | 77.98960 | 14834 ft | 375 kts | 93° |
| 2026-05-05 13:03 | 13.03657 | 78.01647 | 15381 ft | 378 kts | 93° |
| 2026-05-05 13:03 | 13.03493 | 78.04327 | 15822 ft | 384 kts | 93° |
| 2026-05-05 13:03 | 13.03324 | 78.07084 | 16372 ft | 386 kts | 93° |
| 2026-05-05 13:04 | 13.03154 | 78.09835 | 16903 ft | 390 kts | 93° |
| 2026-05-05 13:04 | 13.02982 | 78.12637 | 17367 ft | 394 kts | 94° |
| 2026-05-05 13:04 | 13.02810 | 78.15429 | 17882 ft | 397 kts | 94° |
| 2026-05-05 13:04 | 13.02635 | 78.18263 | 18327 ft | 401 kts | 94° |
| 2026-05-05 13:05 | 13.02458 | 78.21123 | 18787 ft | 403 kts | 94° |
| 2026-05-05 13:05 | 13.02279 | 78.24006 | 19209 ft | 406 kts | 94° |
| 2026-05-05 13:05 | 13.02100 | 78.26892 | 19622 ft | 408 kts | 94° |
| 2026-05-05 13:05 | 13.01918 | 78.29825 | 20049 ft | 411 kts | 94° |
| 2026-05-05 13:06 | 13.01736 | 78.32742 | 20460 ft | 413 kts | 94° |
| 2026-05-05 13:06 | 13.01552 | 78.35698 | 20867 ft | 416 kts | 94° |
| 2026-05-05 13:06 | 13.01365 | 78.38685 | 21271 ft | 419 kts | 94° |
| 2026-05-05 13:06 | 13.01180 | 78.41652 | 21677 ft | 421 kts | 94° |
| 2026-05-05 13:07 | 13.00991 | 78.44656 | 22052 ft | 424 kts | 94° |
| 2026-05-05 13:07 | 13.00800 | 78.47697 | 22455 ft | 426 kts | 94° |
| 2026-05-05 13:07 | 13.00611 | 78.50710 | 22842 ft | 429 kts | 94° |
| 2026-05-05 13:07 | 13.00417 | 78.53776 | 23202 ft | 432 kts | 94° |
| 2026-05-05 13:08 | 13.00223 | 78.56847 | 23562 ft | 434 kts | 94° |
| 2026-05-05 13:08 | 13.00027 | 78.59955 | 23890 ft | 436 kts | 94° |
| 2026-05-05 13:08 | 12.99829 | 78.63067 | 24202 ft | 438 kts | 94° |
| 2026-05-05 13:08 | 12.99632 | 78.66164 | 24556 ft | 439 kts | 94° |
| 2026-05-05 13:09 | 12.99433 | 78.69305 | 24810 ft | 442 kts | 94° |
| 2026-05-05 13:09 | 12.99231 | 78.72472 | 25037 ft | 447 kts | 94° |
| 2026-05-05 13:09 | 12.99026 | 78.75668 | 25418 ft | 447 kts | 94° |
| 2026-05-05 13:09 | 12.98824 | 78.78831 | 25671 ft | 451 kts | 94° |
| 2026-05-05 13:10 | 12.98618 | 78.82033 | 26030 ft | 451 kts | 94° |
| 2026-05-05 13:10 | 12.98411 | 78.85265 | 26335 ft | 454 kts | 94° |
| 2026-05-05 13:10 | 12.98202 | 78.88503 | 26638 ft | 457 kts | 94° |
| 2026-05-05 13:10 | 12.97994 | 78.91725 | 27044 ft | 457 kts | 94° |
| 2026-05-05 13:11 | 12.97780 | 78.95030 | 27329 ft | 461 kts | 94° |
| 2026-05-05 13:11 | 12.97570 | 78.98273 | 27678 ft | 463 kts | 94° |
| 2026-05-05 13:11 | 12.97360 | 79.01517 | 28035 ft | 465 kts | 94° |
| 2026-05-05 13:11 | 12.97149 | 79.04790 | 28316 ft | 468 kts | 94° |
| 2026-05-05 13:12 | 12.96928 | 79.08218 | 28797 ft | 469 kts | 94° |
| 2026-05-05 13:12 | 12.96836 | 79.10425 | 29035 ft | 471 kts | 91° |
| 2026-05-05 13:12 | 12.96914 | 79.14137 | 29378 ft | 476 kts | 89° |
| 2026-05-05 13:13 | 12.96992 | 79.17492 | 29875 ft | 476 kts | 89° |
| 2026-05-05 13:13 | 12.97065 | 79.20913 | 30190 ft | 480 kts | 89° |
| 2026-05-05 13:13 | 12.97134 | 79.24305 | 30641 ft | 480 kts | 90° |
| 2026-05-05 13:13 | 12.97203 | 79.27771 | 31013 ft | 483 kts | 90° |
| 2026-05-05 13:14 | 12.97269 | 79.31193 | 31391 ft | 485 kts | 90° |
| 2026-05-05 13:14 | 12.97335 | 79.34649 | 31797 ft | 486 kts | 90° |
| 2026-05-05 13:14 | 12.97402 | 79.38139 | 32175 ft | 489 kts | 90° |
| 2026-05-05 13:14 | 12.97468 | 79.41624 | 32601 ft | 490 kts | 89° |
| 2026-05-05 13:15 | 12.97534 | 79.45099 | 32850 ft | 495 kts | 90° |
| 2026-05-05 13:15 | 12.97601 | 79.48687 | 33208 ft | 498 kts | 90° |
| 2026-05-05 13:15 | 12.97667 | 79.52211 | 33589 ft | 500 kts | 90° |
| 2026-05-05 13:15 | 12.97734 | 79.55793 | 33934 ft | 502 kts | 90° |
| 2026-05-05 13:16 | 12.97799 | 79.59325 | 34261 ft | 504 kts | 90° |
| 2026-05-05 13:16 | 12.97865 | 79.62944 | 34666 ft | 504 kts | 90° |
| 2026-05-05 13:16 | 12.97929 | 79.66490 | 35133 ft | 502 kts | 90° |
| 2026-05-05 13:16 | 12.97995 | 79.70134 | 35637 ft | 500 kts | 90° |
| 2026-05-05 13:17 | 12.98058 | 79.73654 | 36119 ft | 499 kts | 90° |
| 2026-05-05 13:17 | 12.98121 | 79.77208 | 36613 ft | 497 kts | 90° |
| 2026-05-05 13:17 | 12.98183 | 79.80709 | 37075 ft | 496 kts | 90° |
| 2026-05-05 13:17 | 12.98245 | 79.84265 | 37549 ft | 494 kts | 90° |
| 2026-05-05 13:18 | 12.98305 | 79.87753 | 38041 ft | 492 kts | 90° |
| 2026-05-05 13:18 | 12.98365 | 79.91200 | 38483 ft | 491 kts | 90° |
| 2026-05-05 13:18 | 12.98425 | 79.94770 | 38754 ft | 493 kts | 90° |
| 2026-05-05 13:18 | 12.98484 | 79.98290 | 38795 ft | 491 kts | 90° |
| 2026-05-05 13:19 | 12.98601 | 80.05308 | 38801 ft | 492 kts | 90° |
| 2026-05-05 13:19 | 12.98715 | 80.12293 | 38799 ft | 492 kts | 90° |
| 2026-05-05 13:20 | 12.98436 | 80.19286 | 38805 ft | 492 kts | 97° |
| 2026-05-05 13:20 | 12.97792 | 80.26220 | 38801 ft | 491 kts | 96° |
| 2026-05-05 13:21 | 12.97163 | 80.33244 | 38795 ft | 491 kts | 96° |
| 2026-05-05 13:21 | 12.96539 | 80.40165 | 38793 ft | 490 kts | 96° |
| 2026-05-05 13:22 | 12.95904 | 80.47153 | 38797 ft | 490 kts | 96° |
| 2026-05-05 13:22 | 12.95273 | 80.54078 | 38807 ft | 490 kts | 96° |
| 2026-05-05 13:23 | 12.94637 | 80.61032 | 38802 ft | 491 kts | 96° |
| 2026-05-05 13:23 | 12.94000 | 80.67977 | 38807 ft | 491 kts | 96° |
| 2026-05-05 13:24 | 12.93358 | 80.74949 | 38811 ft | 492 kts | 96° |
| 2026-05-05 13:24 | 12.92712 | 80.81957 | 38821 ft | 492 kts | 96° |
| 2026-05-05 13:25 | 12.92068 | 80.88918 | 38825 ft | 493 kts | 96° |
| 2026-05-05 13:25 | 12.91420 | 80.95901 | 38814 ft | 494 kts | 96° |
| 2026-05-05 13:26 | 12.90767 | 81.02918 | 38822 ft | 495 kts | 96° |
| 2026-05-05 13:26 | 12.90243 | 81.08535 | 38826 ft | 495 kts | 96° |
| 2026-05-05 13:27 | 12.90175 | 81.09258 | 38830 ft | 495 kts | 96° |
| 2026-05-05 13:27 | 12.89842 | 81.12823 | 38833 ft | 496 kts | 96° |
| 2026-05-05 13:28 | 12.89436 | 81.17157 | 38844 ft | 496 kts | 96° |
| 2026-05-05 13:28 | 12.88774 | 81.24205 | 38847 ft | 496 kts | 96° |
| 2026-05-05 13:29 | 12.88113 | 81.31230 | 38831 ft | 496 kts | 96° |
| 2026-05-05 13:29 | 12.87446 | 81.38288 | 38831 ft | 496 kts | 96° |
| 2026-05-05 13:30 | 12.86783 | 81.45288 | 38838 ft | 495 kts | 97° |
| 2026-05-05 13:30 | 12.86114 | 81.52329 | 38838 ft | 495 kts | 96° |
| 2026-05-05 13:31 | 12.85449 | 81.59312 | 38829 ft | 495 kts | 97° |
| 2026-05-05 13:31 | 12.84778 | 81.66339 | 38824 ft | 495 kts | 97° |
| 2026-05-05 13:32 | 12.84102 | 81.73399 | 38823 ft | 495 kts | 97° |
| 2026-05-05 13:32 | 12.83431 | 81.80388 | 38830 ft | 496 kts | 97° |
| 2026-05-05 13:33 | 12.82751 | 81.87446 | 38830 ft | 496 kts | 97° |
| 2026-05-05 13:33 | 12.82072 | 81.94473 | 38849 ft | 496 kts | 97° |
| 2026-05-05 13:34 | 12.81395 | 82.01466 | 38849 ft | 497 kts | 97° |
| 2026-05-05 13:34 | 12.81048 | 82.05028 | 38663 ft | 500 kts | 96° |
| 2026-05-05 13:34 | 12.80706 | 82.08555 | 38614 ft | 500 kts | 97° |
| 2026-05-05 13:35 | 12.80358 | 82.12137 | 38820 ft | 499 kts | 97° |
| 2026-05-05 13:35 | 12.80017 | 82.15629 | 38825 ft | 497 kts | 97° |
| 2026-05-05 13:35 | 12.79325 | 82.22709 | 38824 ft | 496 kts | 97° |
| 2026-05-05 13:36 | 12.78637 | 82.29732 | 38825 ft | 497 kts | 97° |
| 2026-05-05 13:36 | 12.77948 | 82.36740 | 38823 ft | 497 kts | 97° |
| 2026-05-05 13:37 | 12.77251 | 82.43818 | 38818 ft | 497 kts | 97° |
| 2026-05-05 13:37 | 12.76554 | 82.50876 | 38823 ft | 498 kts | 97° |
| 2026-05-05 13:38 | 12.75854 | 82.57944 | 38825 ft | 498 kts | 97° |
| 2026-05-05 13:38 | 12.75156 | 82.64976 | 38832 ft | 499 kts | 97° |
| 2026-05-05 13:39 | 12.74449 | 82.72071 | 38832 ft | 499 kts | 97° |
| 2026-05-05 13:39 | 12.73743 | 82.79138 | 38839 ft | 499 kts | 97° |
| 2026-05-05 13:40 | 12.73038 | 82.86184 | 38842 ft | 498 kts | 97° |
| 2026-05-05 13:40 | 12.72329 | 82.93242 | 38836 ft | 497 kts | 97° |
| 2026-05-05 13:41 | 12.71622 | 83.00276 | 38831 ft | 497 kts | 97° |
| 2026-05-05 13:41 | 12.70914 | 83.07288 | 38828 ft | 496 kts | 97° |
| 2026-05-05 13:42 | 12.70205 | 83.14291 | 38826 ft | 496 kts | 97° |
| 2026-05-05 13:42 | 12.69491 | 83.21340 | 38810 ft | 496 kts | 97° |
| 2026-05-05 13:43 | 12.68778 | 83.28344 | 38813 ft | 497 kts | 97° |
| 2026-05-05 13:43 | 12.68059 | 83.35392 | 38838 ft | 496 kts | 97° |
| 2026-05-05 13:44 | 12.67339 | 83.42441 | 38841 ft | 496 kts | 97° |
| 2026-05-05 13:44 | 12.66601 | 83.49444 | 38837 ft | 495 kts | 99° |
| 2026-05-05 13:45 | 12.65095 | 83.56286 | 38847 ft | 492 kts | 109° |
| 2026-05-05 13:45 | 12.62561 | 83.62780 | 38839 ft | 489 kts | 118° |
| 2026-05-05 13:46 | 12.59550 | 83.68984 | 38834 ft | 489 kts | 117° |
| 2026-05-05 13:46 | 12.57055 | 83.74188 | 38831 ft | 489 kts | 117° |
| 2026-05-05 13:47 | 12.54053 | 83.80438 | 38827 ft | 488 kts | 117° |
| 2026-05-05 13:47 | 12.51045 | 83.86686 | 38826 ft | 488 kts | 117° |
| 2026-05-05 13:48 | 12.48046 | 83.92910 | 38845 ft | 487 kts | 117° |
| 2026-05-05 13:48 | 12.45066 | 83.99085 | 38839 ft | 486 kts | 117° |
| 2026-05-05 13:49 | 12.42058 | 84.05314 | 38841 ft | 485 kts | 117° |
| 2026-05-05 13:49 | 12.39091 | 84.11455 | 38834 ft | 484 kts | 118° |
| 2026-05-05 13:50 | 12.36114 | 84.17615 | 38828 ft | 483 kts | 118° |
| 2026-05-05 13:50 | 12.33129 | 84.23784 | 38859 ft | 481 kts | 117° |
| 2026-05-05 13:51 | 12.30165 | 84.29906 | 38846 ft | 480 kts | 117° |
| 2026-05-05 13:51 | 12.27198 | 84.36031 | 38821 ft | 480 kts | 118° |
| 2026-05-05 13:52 | 12.24242 | 84.42127 | 38822 ft | 480 kts | 118° |
| 2026-05-05 13:52 | 12.21257 | 84.48278 | 38826 ft | 481 kts | 118° |
| 2026-05-05 13:53 | 12.18305 | 84.54359 | 38829 ft | 481 kts | 118° |
| 2026-05-05 13:53 | 12.15311 | 84.60524 | 38836 ft | 482 kts | 118° |
| 2026-05-05 13:54 | 12.12330 | 84.66655 | 38841 ft | 483 kts | 118° |
| 2026-05-05 13:54 | 12.09340 | 84.72799 | 38814 ft | 485 kts | 117° |
| 2026-05-05 13:55 | 12.06322 | 84.79000 | 38828 ft | 487 kts | 117° |
| 2026-05-05 13:55 | 12.03315 | 84.85173 | 38843 ft | 488 kts | 117° |
| 2026-05-05 13:56 | 12.00280 | 84.91400 | 38852 ft | 489 kts | 117° |
| 2026-05-05 13:56 | 11.97469 | 84.97161 | 38877 ft | 489 kts | 117° |
| 2026-05-05 13:57 | 11.96421 | 84.99308 | 38855 ft | 490 kts | 117° |
| 2026-05-05 13:57 | 11.94702 | 85.02830 | 38860 ft | 489 kts | 117° |
| 2026-05-05 13:58 | 11.91664 | 85.09054 | 38851 ft | 489 kts | 117° |
| 2026-05-05 13:58 | 11.88637 | 85.15247 | 38846 ft | 488 kts | 117° |
| 2026-05-05 13:59 | 11.84089 | 85.24545 | 38841 ft | 487 kts | 117° |
| 2026-05-05 14:00 | 11.81472 | 85.29892 | 38837 ft | 487 kts | 117° |
| 2026-05-05 14:00 | 11.78453 | 85.36056 | 38836 ft | 487 kts | 117° |
| 2026-05-05 14:01 | 11.75407 | 85.42271 | 38834 ft | 487 kts | 117° |
| 2026-05-05 14:01 | 11.75368 | 85.42350 | 38835 ft | 487 kts | 117° |
| 2026-05-05 14:02 | 11.72659 | 85.47874 | 38836 ft | 486 kts | 118° |
| 2026-05-05 14:03 | 11.69646 | 85.54013 | 38837 ft | 486 kts | 118° |
| 2026-05-05 14:03 | 11.66611 | 85.60193 | 38833 ft | 486 kts | 118° |
| 2026-05-05 14:04 | 11.63593 | 85.66334 | 38833 ft | 486 kts | 118° |
| 2026-05-05 14:04 | 11.60553 | 85.72516 | 38834 ft | 486 kts | 118° |
| 2026-05-05 14:05 | 11.57526 | 85.78668 | 38835 ft | 486 kts | 118° |
| 2026-05-05 14:05 | 11.54487 | 85.84841 | 38835 ft | 487 kts | 118° |
| 2026-05-05 14:06 | 11.51447 | 85.91012 | 38837 ft | 487 kts | 118° |
| 2026-05-05 14:06 | 11.48412 | 85.97168 | 38839 ft | 487 kts | 118° |
| 2026-05-05 14:07 | 11.45361 | 86.03353 | 38839 ft | 487 kts | 118° |
| 2026-05-05 14:07 | 11.42334 | 86.09486 | 38835 ft | 487 kts | 118° |
| 2026-05-05 14:08 | 11.39286 | 86.15656 | 38834 ft | 487 kts | 118° |
| 2026-05-05 14:08 | 11.36239 | 86.21820 | 38830 ft | 487 kts | 118° |
| 2026-05-05 14:09 | 11.33196 | 86.27974 | 38831 ft | 487 kts | 118° |
| 2026-05-05 14:09 | 11.30145 | 86.34139 | 38836 ft | 488 kts | 118° |
| 2026-05-05 14:10 | 11.27082 | 86.40323 | 38848 ft | 487 kts | 117° |
| 2026-05-05 14:10 | 11.24039 | 86.46465 | 38846 ft | 487 kts | 117° |
| 2026-05-05 14:11 | 11.21000 | 86.52596 | 38844 ft | 486 kts | 117° |
| 2026-05-05 14:11 | 11.17944 | 86.58757 | 38828 ft | 486 kts | 117° |
| 2026-05-05 14:12 | 11.14900 | 86.64890 | 38828 ft | 486 kts | 117° |
| 2026-05-05 14:12 | 11.11858 | 86.71014 | 38826 ft | 486 kts | 117° |
| 2026-05-05 14:13 | 11.08796 | 86.77173 | 38828 ft | 486 kts | 118° |
| 2026-05-05 14:13 | 11.05739 | 86.83319 | 38831 ft | 487 kts | 118° |
| 2026-05-05 14:14 | 11.02684 | 86.89459 | 38833 ft | 487 kts | 118° |
| 2026-05-05 14:14 | 10.99627 | 86.95598 | 38843 ft | 488 kts | 118° |
| 2026-05-05 14:15 | 10.96548 | 87.01778 | 38815 ft | 490 kts | 118° |
| 2026-05-05 14:15 | 10.93450 | 87.07991 | 38825 ft | 492 kts | 118° |
| 2026-05-05 14:16 | 10.90370 | 87.14165 | 38866 ft | 492 kts | 118° |
| 2026-05-05 14:16 | 10.87266 | 87.20384 | 38853 ft | 492 kts | 118° |
| 2026-05-05 14:17 | 10.84166 | 87.26591 | 38850 ft | 492 kts | 118° |
| 2026-05-05 14:17 | 10.81088 | 87.32749 | 38848 ft | 491 kts | 118° |
| 2026-05-05 14:18 | 10.77984 | 87.38957 | 38813 ft | 493 kts | 118° |
| 2026-05-05 14:18 | 10.74858 | 87.45203 | 38826 ft | 494 kts | 118° |
| 2026-05-05 14:19 | 10.71738 | 87.51434 | 38833 ft | 494 kts | 118° |
| 2026-05-05 14:19 | 10.68618 | 87.57663 | 38839 ft | 495 kts | 118° |
| 2026-05-05 14:20 | 10.65487 | 87.63908 | 38844 ft | 496 kts | 118° |
| 2026-05-05 14:20 | 10.62361 | 87.70140 | 38847 ft | 496 kts | 118° |
| 2026-05-05 14:21 | 10.59228 | 87.76378 | 38852 ft | 496 kts | 117° |
| 2026-05-05 14:21 | 10.56101 | 87.82610 | 38851 ft | 496 kts | 117° |
| 2026-05-05 14:22 | 10.52958 | 87.88867 | 38822 ft | 497 kts | 117° |
| 2026-05-05 14:22 | 10.49808 | 87.95131 | 38838 ft | 498 kts | 117° |
| 2026-05-05 14:23 | 10.46635 | 88.01437 | 38841 ft | 508 kts | 117° |
| 2026-05-05 14:23 | 10.43359 | 88.07943 | 38840 ft | 522 kts | 117° |
| 2026-05-05 14:24 | 10.40100 | 88.14410 | 38840 ft | 511 kts | 117° |
| 2026-05-05 14:24 | 10.36843 | 88.20875 | 38836 ft | 514 kts | 116° |
| 2026-05-05 14:25 | 10.33607 | 88.27293 | 38838 ft | 514 kts | 117° |
| 2026-05-05 14:25 | 10.30339 | 88.33770 | 38837 ft | 513 kts | 117° |
| 2026-05-05 14:26 | 10.27086 | 88.40216 | 38836 ft | 514 kts | 117° |
| 2026-05-05 14:26 | 10.23808 | 88.46706 | 38835 ft | 514 kts | 117° |
| 2026-05-05 14:27 | 10.20550 | 88.53159 | 38837 ft | 514 kts | 118° |
| 2026-05-05 14:27 | 10.17827 | 88.58909 | 38840 ft | 512 kts | 115° |
| 2026-05-05 14:28 | 10.16373 | 88.62151 | 38835 ft | 512 kts | 114° |
| 2026-05-05 14:28 | 10.13416 | 88.68702 | 38836 ft | 512 kts | 115° |
| 2026-05-05 14:29 | 10.10420 | 88.75259 | 38836 ft | 511 kts | 115° |
| 2026-05-05 14:29 | 10.07409 | 88.81822 | 38836 ft | 511 kts | 115° |
| 2026-05-05 14:30 | 10.06748 | 88.83261 | 38837 ft | 513 kts | 115° |
| 2026-05-05 14:30 | 10.03708 | 88.89882 | 38838 ft | 521 kts | 115° |
| 2026-05-05 14:31 | 10.01831 | 88.93966 | 38836 ft | 520 kts | 115° |
| 2026-05-05 14:31 | 9.98772 | 89.00621 | 38839 ft | 522 kts | 115° |
| 2026-05-05 14:32 | 9.95716 | 89.07266 | 38840 ft | 521 kts | 115° |
| 2026-05-05 14:32 | 9.92653 | 89.13919 | 38840 ft | 520 kts | 115° |
| 2026-05-05 14:33 | 9.89593 | 89.20565 | 38840 ft | 521 kts | 115° |
| 2026-05-05 14:33 | 9.86516 | 89.27236 | 38839 ft | 519 kts | 115° |
| 2026-05-05 14:34 | 9.83462 | 89.33861 | 38839 ft | 522 kts | 114° |
| 2026-05-05 14:34 | 9.80913 | 89.39388 | 38836 ft | 517 kts | 115° |
| 2026-05-05 14:35 | 9.77871 | 89.45978 | 38837 ft | 518 kts | 115° |
| 2026-05-05 14:35 | 9.74809 | 89.52607 | 38837 ft | 518 kts | 115° |
| 2026-05-05 14:36 | 9.71255 | 89.60296 | 38836 ft | 518 kts | 115° |
| 2026-05-05 14:36 | 9.68706 | 89.65807 | 38837 ft | 519 kts | 115° |
| 2026-05-05 14:37 | 9.65635 | 89.72444 | 38838 ft | 518 kts | 115° |
| 2026-05-05 14:37 | 9.62587 | 89.79027 | 38836 ft | 517 kts | 115° |
| 2026-05-05 14:38 | 9.59527 | 89.85633 | 38834 ft | 518 kts | 115° |
| 2026-05-05 14:38 | 9.56454 | 89.92261 | 38834 ft | 518 kts | 115° |
| 2026-05-05 14:39 | 9.53405 | 89.98835 | 38837 ft | 519 kts | 115° |
| 2026-05-05 14:39 | 9.50335 | 90.05448 | 38834 ft | 520 kts | 114° |
| 2026-05-05 14:40 | 9.47247 | 90.12100 | 38834 ft | 520 kts | 114° |
| 2026-05-05 14:40 | 9.44187 | 90.18688 | 38831 ft | 518 kts | 115° |
| 2026-05-05 14:41 | 9.41102 | 90.25324 | 38832 ft | 518 kts | 114° |
| 2026-05-05 14:41 | 9.38029 | 90.31929 | 38829 ft | 519 kts | 114° |
| 2026-05-05 14:42 | 9.34963 | 90.38514 | 38829 ft | 518 kts | 114° |
| 2026-05-05 14:42 | 9.31896 | 90.45098 | 38829 ft | 516 kts | 114° |
| 2026-05-05 14:43 | 9.28830 | 90.51679 | 38828 ft | 516 kts | 114° |
| 2026-05-05 14:43 | 9.25776 | 90.58230 | 38835 ft | 517 kts | 114° |
| 2026-05-05 14:44 | 9.22707 | 90.64809 | 38833 ft | 516 kts | 114° |
| 2026-05-05 14:44 | 9.19630 | 90.71402 | 38831 ft | 516 kts | 114° |
| 2026-05-05 14:45 | 9.16574 | 90.77945 | 38835 ft | 514 kts | 114° |
| 2026-05-05 14:45 | 9.13554 | 90.84407 | 38836 ft | 508 kts | 114° |
| 2026-05-05 14:46 | 9.10516 | 90.90906 | 38836 ft | 509 kts | 114° |
| 2026-05-05 14:46 | 9.07487 | 90.97379 | 38835 ft | 510 kts | 114° |
| 2026-05-05 14:47 | 9.04460 | 91.03846 | 38834 ft | 510 kts | 114° |
| 2026-05-05 14:47 | 9.01432 | 91.10314 | 38833 ft | 510 kts | 114° |
| 2026-05-05 14:48 | 8.98391 | 91.16805 | 38833 ft | 508 kts | 114° |
| 2026-05-05 14:48 | 8.95374 | 91.23242 | 38834 ft | 507 kts | 114° |
| 2026-05-05 14:49 | 8.92359 | 91.29668 | 38835 ft | 507 kts | 114° |
| 2026-05-05 14:49 | 8.89336 | 91.36111 | 38834 ft | 507 kts | 114° |
| 2026-05-05 14:50 | 8.86312 | 91.42553 | 39071 ft | 510 kts | 114° |
| 2026-05-05 14:50 | 8.84782 | 91.45809 | 39507 ft | 509 kts | 114° |
| 2026-05-05 14:50 | 8.83261 | 91.49047 | 39902 ft | 508 kts | 115° |
| 2026-05-05 14:51 | 8.80243 | 91.55467 | 39844 ft | 504 kts | 115° |
| 2026-05-05 14:51 | 8.77214 | 91.61908 | 39828 ft | 510 kts | 115° |
| 2026-05-05 14:52 | 8.74161 | 91.68399 | 39825 ft | 510 kts | 115° |
| 2026-05-05 14:52 | 8.71109 | 91.74878 | 39829 ft | 510 kts | 115° |
| 2026-05-05 14:53 | 8.68050 | 91.81367 | 39823 ft | 509 kts | 115° |
| 2026-05-05 14:53 | 8.65023 | 91.87791 | 39826 ft | 509 kts | 115° |
| 2026-05-05 14:54 | 8.61958 | 91.94292 | 39826 ft | 510 kts | 114° |
| 2026-05-05 14:54 | 8.58915 | 92.00749 | 39844 ft | 509 kts | 114° |
| 2026-05-05 14:55 | 8.56008 | 92.07282 | 39848 ft | 510 kts | 112° |
| 2026-05-05 14:55 | 8.53151 | 92.13812 | 39845 ft | 510 kts | 112° |
| 2026-05-05 14:56 | 8.50252 | 92.20376 | 39845 ft | 510 kts | 112° |
| 2026-05-05 14:56 | 8.47359 | 92.26903 | 39823 ft | 510 kts | 112° |
| 2026-05-05 14:57 | 8.44482 | 92.33385 | 39841 ft | 504 kts | 112° |
| 2026-05-05 14:57 | 8.41608 | 92.39864 | 39827 ft | 504 kts | 112° |
| 2026-05-05 14:58 | 8.38745 | 92.46315 | 39826 ft | 504 kts | 112° |
| 2026-05-05 14:58 | 8.35875 | 92.52775 | 39819 ft | 504 kts | 112° |
| 2026-05-05 14:59 | 8.33000 | 92.59245 | 39817 ft | 503 kts | 112° |
| 2026-05-05 14:59 | 8.30150 | 92.65655 | 39828 ft | 502 kts | 112° |
| 2026-05-05 15:00 | 8.27757 | 92.71036 | 39827 ft | 504 kts | 112° |
| 2026-05-05 15:00 | 8.24404 | 92.78570 | 39827 ft | 504 kts | 112° |
| 2026-05-05 15:01 | 8.21532 | 92.85019 | 39829 ft | 504 kts | 112° |
| 2026-05-05 15:01 | 8.18656 | 92.91472 | 39830 ft | 504 kts | 112° |
| 2026-05-05 15:02 | 8.15784 | 92.97916 | 39827 ft | 504 kts | 112° |
| 2026-05-05 15:02 | 8.12910 | 93.04360 | 39840 ft | 504 kts | 112° |
| 2026-05-05 15:03 | 8.10022 | 93.10832 | 39824 ft | 504 kts | 112° |
| 2026-05-05 15:03 | 8.07155 | 93.17254 | 39825 ft | 504 kts | 112° |
| 2026-05-05 15:04 | 8.04295 | 93.23659 | 39840 ft | 494 kts | 112° |
| 2026-05-05 15:04 | 8.01452 | 93.30023 | 39839 ft | 500 kts | 112° |
| 2026-05-05 15:05 | 7.97150 | 93.39649 | 39821 ft | 504 kts | 112° |
| 2026-05-05 15:06 | 7.94264 | 93.46098 | 39817 ft | 503 kts | 112° |
| 2026-05-05 15:06 | 7.91375 | 93.52561 | 39819 ft | 503 kts | 112° |
| 2026-05-05 15:07 | 7.88524 | 93.58987 | 39820 ft | 503 kts | 112° |
| 2026-05-05 15:07 | 7.85652 | 93.65459 | 39825 ft | 504 kts | 112° |
| 2026-05-05 15:07 | 7.84235 | 93.68648 | 41647 ft | 504 kts | 112° |
| 2026-05-05 15:08 | 7.82800 | 93.71883 | 39535 ft | 509 kts | 113° |
| 2026-05-05 15:08 | 7.79897 | 93.78400 | 39852 ft | 505 kts | 112° |
| 2026-05-05 15:09 | 7.77033 | 93.84836 | 39885 ft | 502 kts | 112° |
| 2026-05-05 15:09 | 7.74161 | 93.91290 | 39887 ft | 504 kts | 112° |
| 2026-05-05 15:10 | 7.71306 | 93.97705 | 39887 ft | 504 kts | 112° |
| 2026-05-05 15:10 | 7.68423 | 94.04176 | 39886 ft | 504 kts | 112° |
| 2026-05-05 15:10 | 7.67009 | 94.07348 | 39773 ft | 501 kts | 112° |
| 2026-05-05 15:11 | 7.65580 | 94.10553 | 39268 ft | 499 kts | 112° |
| 2026-05-05 15:11 | 7.64160 | 94.13737 | 38967 ft | 500 kts | 112° |
| 2026-05-05 15:11 | 7.62733 | 94.16941 | 38954 ft | 506 kts | 112° |
| 2026-05-05 15:11 | 7.61291 | 94.20177 | 39117 ft | 505 kts | 112° |
| 2026-05-05 15:12 | 7.59847 | 94.23410 | 39299 ft | 504 kts | 112° |
| 2026-05-05 15:12 | 7.58423 | 94.26600 | 39453 ft | 503 kts | 112° |
| 2026-05-05 15:12 | 7.56987 | 94.29815 | 39475 ft | 500 kts | 113° |
| 2026-05-05 15:13 | 7.54167 | 94.36131 | 39472 ft | 500 kts | 113° |
| 2026-05-05 15:13 | 7.51304 | 94.42536 | 39025 ft | 488 kts | 113° |
| 2026-05-05 15:13 | 7.49840 | 94.45635 | 38894 ft | 476 kts | 115° |
| 2026-05-05 15:14 | 7.48401 | 94.48556 | 38884 ft | 472 kts | 115° |
| 2026-05-05 15:14 | 7.45438 | 94.54581 | 38880 ft | 489 kts | 115° |
| 2026-05-05 15:15 | 7.43790 | 94.57962 | 38880 ft | 499 kts | 115° |
| 2026-05-05 15:15 | 7.42581 | 94.60450 | 38879 ft | 506 kts | 115° |
| 2026-05-05 15:16 | 7.39494 | 94.66796 | 38876 ft | 502 kts | 115° |
| 2026-05-05 15:16 | 7.37735 | 94.70412 | 38878 ft | 505 kts | 115° |
| 2026-05-05 15:17 | 7.35684 | 94.74630 | 38877 ft | 506 kts | 115° |
| 2026-05-05 15:17 | 7.34452 | 94.77164 | 38877 ft | 505 kts | 115° |
| 2026-05-05 15:18 | 7.33528 | 94.79066 | 38874 ft | 505 kts | 115° |
| 2026-05-05 15:18 | 7.31776 | 94.82669 | 38875 ft | 506 kts | 115° |
| 2026-05-05 15:19 | 7.28677 | 94.89039 | 38877 ft | 506 kts | 115° |
| 2026-05-05 15:19 | 7.25594 | 94.95373 | 38873 ft | 506 kts | 115° |
| 2026-05-05 15:20 | 7.22473 | 95.01781 | 38878 ft | 507 kts | 115° |
| 2026-05-05 15:20 | 7.20279 | 95.06283 | 38877 ft | 507 kts | 115° |
| 2026-05-05 15:21 | 7.18686 | 95.09555 | 38872 ft | 506 kts | 115° |
| 2026-05-05 15:22 | 7.16186 | 95.14683 | 38871 ft | 506 kts | 115° |
| 2026-05-05 15:22 | 7.13156 | 95.20898 | 38873 ft | 506 kts | 115° |
| 2026-05-05 15:23 | 7.10827 | 95.25674 | 38873 ft | 506 kts | 115° |
| 2026-05-05 15:23 | 7.08178 | 95.31103 | 38866 ft | 506 kts | 115° |
| 2026-05-05 15:24 | 7.05068 | 95.37475 | 38871 ft | 506 kts | 115° |
| 2026-05-05 15:24 | 7.01957 | 95.43846 | 38867 ft | 506 kts | 115° |
| 2026-05-05 15:25 | 6.98869 | 95.50167 | 38870 ft | 506 kts | 115° |
| 2026-05-05 15:25 | 6.95753 | 95.56545 | 38872 ft | 506 kts | 115° |
| 2026-05-05 15:26 | 6.92655 | 95.62883 | 38870 ft | 506 kts | 115° |
| 2026-05-05 15:26 | 6.89534 | 95.69263 | 38867 ft | 506 kts | 115° |
| 2026-05-05 15:27 | 6.86446 | 95.75574 | 38867 ft | 505 kts | 115° |
| 2026-05-05 15:27 | 6.83329 | 95.81942 | 38868 ft | 505 kts | 115° |
| 2026-05-05 15:28 | 6.81429 | 95.85824 | 38863 ft | 505 kts | 115° |
| 2026-05-05 15:28 | 6.78328 | 95.92155 | 38863 ft | 506 kts | 115° |
| 2026-05-05 15:29 | 6.75219 | 95.98504 | 38865 ft | 505 kts | 115° |
| 2026-05-05 15:29 | 6.72103 | 96.04864 | 38863 ft | 505 kts | 115° |
| 2026-05-05 15:30 | 6.69018 | 96.11159 | 38863 ft | 503 kts | 115° |
| 2026-05-05 15:30 | 6.65922 | 96.17476 | 38861 ft | 501 kts | 115° |
| 2026-05-05 15:31 | 6.62852 | 96.23741 | 38862 ft | 502 kts | 115° |
| 2026-05-05 15:31 | 6.59775 | 96.30015 | 38861 ft | 502 kts | 115° |
| 2026-05-05 15:32 | 6.56668 | 96.36347 | 38858 ft | 502 kts | 115° |
| 2026-05-05 15:32 | 6.53596 | 96.42601 | 38859 ft | 502 kts | 115° |
| 2026-05-05 15:33 | 6.50590 | 96.48945 | 38859 ft | 503 kts | 110° |
| 2026-05-05 15:33 | 6.48483 | 96.55665 | 38856 ft | 502 kts | 105° |
| 2026-05-05 15:34 | 6.46525 | 96.62371 | 38857 ft | 502 kts | 105° |
| 2026-05-05 15:34 | 6.44547 | 96.69112 | 38857 ft | 502 kts | 105° |
| 2026-05-05 15:35 | 6.42563 | 96.75872 | 38855 ft | 502 kts | 105° |
| 2026-05-05 15:35 | 6.40594 | 96.82595 | 38856 ft | 502 kts | 105° |
| 2026-05-05 15:36 | 6.38624 | 96.89310 | 38855 ft | 503 kts | 105° |
| 2026-05-05 15:36 | 6.36642 | 96.96061 | 38856 ft | 503 kts | 105° |
| 2026-05-05 15:37 | 6.34671 | 97.02785 | 38850 ft | 503 kts | 105° |
| 2026-05-05 15:37 | 6.32682 | 97.09538 | 38852 ft | 503 kts | 105° |
| 2026-05-05 15:38 | 6.30692 | 97.16299 | 38846 ft | 503 kts | 105° |
| 2026-05-05 15:38 | 6.28718 | 97.23011 | 38844 ft | 504 kts | 105° |
| 2026-05-05 15:39 | 6.26732 | 97.29762 | 38850 ft | 504 kts | 105° |
| 2026-05-05 15:39 | 6.24744 | 97.36515 | 38843 ft | 503 kts | 105° |
| 2026-05-05 15:40 | 6.22764 | 97.43238 | 38846 ft | 503 kts | 105° |
| 2026-05-05 15:40 | 6.20767 | 97.50006 | 38849 ft | 504 kts | 105° |
| 2026-05-05 15:41 | 6.18458 | 97.56629 | 38848 ft | 506 kts | 114° |
| 2026-05-05 15:41 | 6.14702 | 97.62659 | 38853 ft | 515 kts | 127° |
| 2026-05-05 15:42 | 6.10028 | 97.68069 | 38852 ft | 515 kts | 129° |
| 2026-05-05 15:42 | 6.05304 | 97.73561 | 38838 ft | 515 kts | 129° |
| 2026-05-05 15:43 | 6.00630 | 97.78984 | 38833 ft | 515 kts | 129° |
| 2026-05-05 15:43 | 5.95957 | 97.84402 | 38832 ft | 515 kts | 129° |
| 2026-05-05 15:44 | 5.91249 | 97.89854 | 38830 ft | 515 kts | 129° |
| 2026-05-05 15:44 | 5.86550 | 97.95295 | 38832 ft | 515 kts | 129° |
| 2026-05-05 15:45 | 5.81833 | 98.00759 | 38849 ft | 516 kts | 130° |
| 2026-05-05 15:45 | 5.77157 | 98.06175 | 38849 ft | 516 kts | 130° |
| 2026-05-05 15:46 | 5.72447 | 98.11627 | 38849 ft | 516 kts | 130° |
| 2026-05-05 15:46 | 5.67753 | 98.17062 | 38850 ft | 516 kts | 130° |
| 2026-05-05 15:47 | 5.63029 | 98.22531 | 38842 ft | 520 kts | 130° |
| 2026-05-05 15:47 | 5.58306 | 98.27988 | 38827 ft | 520 kts | 130° |
| 2026-05-05 15:48 | 5.53542 | 98.33491 | 38825 ft | 520 kts | 130° |
| 2026-05-05 15:48 | 5.48825 | 98.38945 | 38825 ft | 517 kts | 130° |
| 2026-05-05 15:49 | 5.44098 | 98.44408 | 38827 ft | 517 kts | 130° |
| 2026-05-05 15:49 | 5.39361 | 98.49881 | 38838 ft | 518 kts | 130° |
| 2026-05-05 15:50 | 5.34698 | 98.55267 | 38839 ft | 518 kts | 130° |
| 2026-05-05 15:50 | 5.29951 | 98.60751 | 38838 ft | 518 kts | 130° |
| 2026-05-05 15:51 | 5.25215 | 98.66214 | 38836 ft | 516 kts | 130° |
| 2026-05-05 15:51 | 5.20494 | 98.71660 | 38830 ft | 516 kts | 130° |
| 2026-05-05 15:52 | 5.15818 | 98.77062 | 38816 ft | 516 kts | 130° |
| 2026-05-05 15:52 | 5.11116 | 98.82492 | 38812 ft | 517 kts | 130° |
| 2026-05-05 15:53 | 5.06375 | 98.87959 | 38813 ft | 516 kts | 130° |
| 2026-05-05 15:53 | 5.01662 | 98.93386 | 38814 ft | 516 kts | 130° |
| 2026-05-05 15:54 | 4.96934 | 98.98831 | 38827 ft | 517 kts | 130° |
| 2026-05-05 15:54 | 4.92237 | 99.04243 | 38830 ft | 517 kts | 130° |
| 2026-05-05 15:55 | 4.87503 | 99.09697 | 38835 ft | 517 kts | 130° |
| 2026-05-05 15:55 | 4.82807 | 99.15108 | 38829 ft | 517 kts | 130° |
| 2026-05-05 15:56 | 4.78081 | 99.20550 | 38827 ft | 517 kts | 130° |
| 2026-05-05 15:56 | 4.73345 | 99.26002 | 38811 ft | 517 kts | 130° |
| 2026-05-05 15:57 | 4.68645 | 99.31412 | 38811 ft | 516 kts | 130° |
| 2026-05-05 15:57 | 4.63915 | 99.36855 | 38809 ft | 516 kts | 130° |
| 2026-05-05 15:58 | 4.59223 | 99.42258 | 38805 ft | 516 kts | 130° |
| 2026-05-05 15:58 | 4.54493 | 99.47697 | 38824 ft | 519 kts | 130° |
| 2026-05-05 15:59 | 4.49753 | 99.53147 | 38825 ft | 516 kts | 130° |
| 2026-05-05 15:59 | 4.45200 | 99.58726 | 38828 ft | 516 kts | 127° |
| 2026-05-05 16:00 | 4.40783 | 99.64348 | 38826 ft | 516 kts | 127° |
| 2026-05-05 16:00 | 4.36341 | 99.69941 | 38807 ft | 516 kts | 127° |
| 2026-05-05 16:01 | 4.31876 | 99.75537 | 38804 ft | 515 kts | 128° |
| 2026-05-05 16:01 | 4.27366 | 99.81169 | 38801 ft | 516 kts | 128° |
| 2026-05-05 16:02 | 4.22863 | 99.86793 | 38803 ft | 517 kts | 128° |
| 2026-05-05 16:02 | 4.18356 | 99.92425 | 38805 ft | 517 kts | 128° |
| 2026-05-05 16:03 | 4.13878 | 99.98022 | 38821 ft | 517 kts | 128° |
| 2026-05-05 16:03 | 4.09414 | 100.03600 | 38831 ft | 517 kts | 127° |
| 2026-05-05 16:04 | 4.04900 | 100.09246 | 38831 ft | 517 kts | 128° |
| 2026-05-05 16:04 | 4.00389 | 100.14879 | 38825 ft | 517 kts | 128° |
| 2026-05-05 16:05 | 3.95899 | 100.20483 | 38822 ft | 517 kts | 128° |
| 2026-05-05 16:05 | 3.91406 | 100.26092 | 38806 ft | 514 kts | 128° |
| 2026-05-05 16:06 | 3.86946 | 100.31659 | 38803 ft | 514 kts | 128° |
| 2026-05-05 16:06 | 3.82456 | 100.37269 | 38802 ft | 514 kts | 128° |
| 2026-05-05 16:07 | 3.78005 | 100.42822 | 38808 ft | 514 kts | 128° |
| 2026-05-05 16:07 | 3.73497 | 100.48443 | 38823 ft | 518 kts | 128° |
| 2026-05-05 16:08 | 3.68978 | 100.54077 | 38824 ft | 518 kts | 128° |
| 2026-05-05 16:08 | 3.64497 | 100.59666 | 38827 ft | 519 kts | 128° |
| 2026-05-05 16:09 | 3.59991 | 100.65288 | 38821 ft | 510 kts | 128° |
| 2026-05-05 16:09 | 3.57798 | 100.68021 | 38804 ft | 496 kts | 128° |
| 2026-05-05 16:09 | 3.55637 | 100.70716 | 38819 ft | 492 kts | 128° |
| 2026-05-05 16:10 | 3.51350 | 100.76060 | 38820 ft | 496 kts | 128° |
| 2026-05-05 16:10 | 3.47030 | 100.81443 | 38827 ft | 495 kts | 128° |
| 2026-05-05 16:11 | 3.42703 | 100.86835 | 38828 ft | 495 kts | 128° |
| 2026-05-05 16:12 | 3.34080 | 100.97577 | 38804 ft | 496 kts | 128° |
| 2026-05-05 16:13 | 3.23257 | 101.11027 | 38819 ft | 497 kts | 128° |
| 2026-05-05 16:13 | 3.19655 | 101.15503 | 38813 ft | 496 kts | 128° |
| 2026-05-05 16:14 | 3.10996 | 101.26244 | 38819 ft | 497 kts | 128° |
| 2026-05-05 16:15 | 3.02366 | 101.36896 | 38811 ft | 489 kts | 129° |
| 2026-05-05 16:16 | 2.93731 | 101.47557 | 38803 ft | 494 kts | 129° |
| 2026-05-05 16:17 | 2.87264 | 101.55540 | 38805 ft | 494 kts | 129° |
| 2026-05-05 16:18 | 2.80791 | 101.63530 | 38792 ft | 494 kts | 129° |
| 2026-05-05 16:19 | 2.74153 | 101.71404 | 38797 ft | 488 kts | 135° |
| 2026-05-05 16:19 | 2.66246 | 101.77717 | 38793 ft | 487 kts | 148° |
| 2026-05-05 16:20 | 2.54702 | 101.84927 | 38794 ft | 489 kts | 147° |
| 2026-05-05 16:22 | 2.40340 | 101.93921 | 38808 ft | 489 kts | 147° |
| 2026-05-05 16:23 | 2.28787 | 102.01148 | 38809 ft | 489 kts | 148° |
| 2026-05-05 16:23 | 2.20159 | 102.06571 | 38825 ft | 489 kts | 141° |
| 2026-05-05 16:24 | 2.15464 | 102.11405 | 38824 ft | 489 kts | 127° |
| 2026-05-05 16:25 | 2.10400 | 102.20276 | 38827 ft | 489 kts | 118° |
| 2026-05-05 16:25 | 2.05636 | 102.29283 | 38825 ft | 489 kts | 118° |
| 2026-05-05 16:26 | 2.02457 | 102.35291 | 38669 ft | 486 kts | 118° |
| 2026-05-05 16:26 | 1.99330 | 102.41203 | 38170 ft | 483 kts | 118° |
| 2026-05-05 16:27 | 1.97735 | 102.44221 | 37894 ft | 484 kts | 118° |
| 2026-05-05 16:27 | 1.96167 | 102.47171 | 37446 ft | 485 kts | 118° |
| 2026-05-05 16:27 | 1.94587 | 102.50129 | 36656 ft | 488 kts | 118° |
| 2026-05-05 16:27 | 1.92967 | 102.53145 | 35614 ft | 494 kts | 118° |
| 2026-05-05 16:28 | 1.91323 | 102.56205 | 34587 ft | 499 kts | 118° |
| 2026-05-05 16:28 | 1.89682 | 102.59264 | 33781 ft | 499 kts | 117° |
| 2026-05-05 16:28 | 1.88075 | 102.62265 | 33075 ft | 494 kts | 117° |
| 2026-05-05 16:28 | 1.86452 | 102.65301 | 32635 ft | 484 kts | 117° |
| 2026-05-05 16:29 | 1.84877 | 102.68245 | 32043 ft | 477 kts | 117° |
| 2026-05-05 16:29 | 1.83335 | 102.71129 | 31447 ft | 472 kts | 117° |
| 2026-05-05 16:29 | 1.81792 | 102.74015 | 30858 ft | 468 kts | 117° |
| 2026-05-05 16:29 | 1.80267 | 102.76865 | 30260 ft | 463 kts | 118° |
| 2026-05-05 16:30 | 1.78747 | 102.79700 | 29636 ft | 459 kts | 118° |
| 2026-05-05 16:30 | 1.77251 | 102.82495 | 29011 ft | 453 kts | 117° |
| 2026-05-05 16:30 | 1.75773 | 102.85263 | 28438 ft | 447 kts | 117° |
| 2026-05-05 16:30 | 1.74343 | 102.87941 | 27871 ft | 442 kts | 117° |
| 2026-05-05 16:31 | 1.72873 | 102.90693 | 27270 ft | 437 kts | 117° |
| 2026-05-05 16:31 | 1.71454 | 102.93351 | 26711 ft | 433 kts | 117° |
| 2026-05-05 16:31 | 1.70047 | 102.95990 | 26134 ft | 429 kts | 117° |
| 2026-05-05 16:31 | 1.68653 | 102.98605 | 25578 ft | 425 kts | 117° |
| 2026-05-05 16:32 | 1.67279 | 103.01183 | 25016 ft | 421 kts | 117° |
| 2026-05-05 16:32 | 1.65938 | 103.03701 | 24465 ft | 418 kts | 117° |
| 2026-05-05 16:32 | 1.64578 | 103.06260 | 23908 ft | 415 kts | 117° |
| 2026-05-05 16:32 | 1.63217 | 103.08801 | 23168 ft | 416 kts | 119° |
| 2026-05-05 16:33 | 1.61561 | 103.11183 | 22610 ft | 412 kts | 130° |
| 2026-05-05 16:33 | 1.59552 | 103.13191 | 22129 ft | 407 kts | 139° |
| 2026-05-05 16:33 | 1.57276 | 103.14822 | 21602 ft | 403 kts | 146° |
| 2026-05-05 16:33 | 1.54929 | 103.16340 | 21028 ft | 399 kts | 146° |
| 2026-05-05 16:34 | 1.52619 | 103.17859 | 20483 ft | 396 kts | 145° |
| 2026-05-05 16:34 | 1.50320 | 103.19378 | 19931 ft | 392 kts | 145° |
| 2026-05-05 16:34 | 1.48056 | 103.20875 | 19376 ft | 390 kts | 145° |
| 2026-05-05 16:34 | 1.45800 | 103.22367 | 18828 ft | 387 kts | 145° |
| 2026-05-05 16:35 | 1.43583 | 103.23831 | 18291 ft | 384 kts | 145° |
| 2026-05-05 16:35 | 1.41356 | 103.25301 | 17701 ft | 382 kts | 145° |
| 2026-05-05 16:35 | 1.39150 | 103.26757 | 17153 ft | 377 kts | 145° |
| 2026-05-05 16:35 | 1.36980 | 103.28190 | 16634 ft | 373 kts | 145° |
| 2026-05-05 16:36 | 1.34846 | 103.29600 | 16106 ft | 369 kts | 145° |
| 2026-05-05 16:36 | 1.32708 | 103.31016 | 15583 ft | 365 kts | 145° |
| 2026-05-05 16:36 | 1.30582 | 103.32423 | 15053 ft | 362 kts | 145° |
| 2026-05-05 16:36 | 1.28486 | 103.33804 | 14534 ft | 359 kts | 146° |
| 2026-05-05 16:37 | 1.26409 | 103.35171 | 14039 ft | 356 kts | 146° |
| 2026-05-05 16:37 | 1.24359 | 103.36521 | 13504 ft | 354 kts | 146° |
| 2026-05-05 16:37 | 1.22349 | 103.37846 | 12993 ft | 350 kts | 146° |
| 2026-05-05 16:37 | 1.20303 | 103.39196 | 12475 ft | 346 kts | 146° |
| 2026-05-05 16:38 | 1.18296 | 103.40521 | 12012 ft | 342 kts | 146° |
| 2026-05-05 16:38 | 1.16319 | 103.41826 | 11511 ft | 339 kts | 146° |
| 2026-05-05 16:38 | 1.14384 | 103.43105 | 11100 ft | 336 kts | 146° |
| 2026-05-05 16:38 | 1.12434 | 103.44393 | 10716 ft | 345 kts | 146° |
| 2026-05-05 16:39 | 1.10491 | 103.45676 | 10370 ft | 345 kts | 146° |
| 2026-05-05 16:39 | 1.08462 | 103.47015 | 10227 ft | 330 kts | 146° |
| 2026-05-05 16:39 | 1.06592 | 103.48251 | 10121 ft | 315 kts | 144° |
| 2026-05-05 16:39 | 1.05095 | 103.49748 | 9999 ft | 302 kts | 122° |
| 2026-05-05 16:40 | 1.04359 | 103.51665 | 9735 ft | 298 kts | 98° |
| 2026-05-05 16:40 | 1.04455 | 103.53724 | 9390 ft | 296 kts | 81° |
| 2026-05-05 16:40 | 1.04823 | 103.55757 | 9050 ft | 295 kts | 80° |
| 2026-05-05 16:40 | 1.05166 | 103.57741 | 8718 ft | 293 kts | 81° |
| 2026-05-05 16:41 | 1.05479 | 103.59761 | 8375 ft | 291 kts | 82° |
| 2026-05-05 16:41 | 1.05763 | 103.61766 | 8049 ft | 290 kts | 82° |
| 2026-05-05 16:41 | 1.06031 | 103.63756 | 7705 ft | 288 kts | 82° |
| 2026-05-05 16:41 | 1.06291 | 103.65730 | 7402 ft | 286 kts | 82° |
| 2026-05-05 16:42 | 1.06546 | 103.67671 | 7075 ft | 285 kts | 82° |
| 2026-05-05 16:42 | 1.06804 | 103.69628 | 6750 ft | 283 kts | 82° |
| 2026-05-05 16:42 | 1.07060 | 103.71567 | 6425 ft | 282 kts | 82° |
| 2026-05-05 16:42 | 1.07318 | 103.73519 | 6124 ft | 282 kts | 82° |
| 2026-05-05 16:43 | 1.07570 | 103.75465 | 5733 ft | 283 kts | 82° |
| 2026-05-05 16:43 | 1.07816 | 103.77406 | 5444 ft | 281 kts | 82° |
| 2026-05-05 16:43 | 1.08062 | 103.79357 | 5119 ft | 279 kts | 82° |
| 2026-05-05 16:43 | 1.08301 | 103.81250 | 4815 ft | 277 kts | 82° |
| 2026-05-05 16:44 | 1.08542 | 103.83173 | 4480 ft | 275 kts | 82° |
| 2026-05-05 16:44 | 1.08781 | 103.85076 | 4173 ft | 276 kts | 82° |
| 2026-05-05 16:44 | 1.09125 | 103.86944 | 4034 ft | 272 kts | 69° |
| 2026-05-05 16:44 | 1.10132 | 103.88447 | 3948 ft | 259 kts | 41° |
| 2026-05-05 16:45 | 1.11665 | 103.89280 | 3860 ft | 246 kts | 19° |
| 2026-05-05 16:45 | 1.13275 | 103.89741 | 3790 ft | 236 kts | 15° |
| 2026-05-05 16:45 | 1.14828 | 103.90151 | 3682 ft | 226 kts | 15° |
| 2026-05-05 16:45 | 1.16320 | 103.90573 | 3419 ft | 218 kts | 17° |
| 2026-05-05 16:46 | 1.17763 | 103.91010 | 3536 ft | 220 kts | 18° |
| 2026-05-05 16:46 | 1.19211 | 103.91470 | 3528 ft | 221 kts | 18° |
| 2026-05-05 16:46 | 1.20696 | 103.91889 | 3526 ft | 221 kts | 15° |
| 2026-05-05 16:46 | 1.22162 | 103.92345 | 3526 ft | 220 kts | 21° |
| 2026-05-05 16:47 | 1.23473 | 103.92886 | 3511 ft | 220 kts | 25° |
| 2026-05-05 16:47 | 1.24698 | 103.93426 | 3509 ft | 221 kts | 21° |
| 2026-05-05 16:47 | 1.26118 | 103.94022 | 3526 ft | 220 kts | 26° |
| 2026-05-05 16:47 | 1.27543 | 103.94588 | 3517 ft | 220 kts | 22° |
| 2026-05-05 16:48 | 1.28888 | 103.95236 | 3542 ft | 217 kts | 22° |
| 2026-05-05 16:48 | 1.30296 | 103.95734 | 3512 ft | 210 kts | 26° |
| 2026-05-05 16:48 | 1.31587 | 103.96398 | 3520 ft | 208 kts | 20° |
| 2026-05-05 16:48 | 1.32980 | 103.96812 | 3516 ft | 209 kts | 23° |